Time;durP1;ratioP1;P1;durP2;ratioP2;P2;SDS_P1;SDS_P2;PMS_P1;PMS_P2;Temp;Humidity;BMP_temperature;BMP_pressure;BME280_temperature;BME280_humidity;BME280_pressure;Samples;Min_cycle;Max_cycle;Signal;HPM_P1;HPM_P2
2023/02/25 00:01:09;;;;;;;;;13.25;11.25;;;;;8.67;100.00;100857.56;5037033;28;45581;-77
2023/02/25 00:03:35;;;;;;;;;16.00;10.00;;;;;8.62;100.00;100852.47;5036460;28;45472;-76
2023/02/25 00:06:05;;;;;;;;;12.50;8.75;;;;;8.66;100.00;100864.50;5036554;28;66570;-77
2023/02/25 00:08:31;;;;;;;;;8.75;6.00;;;;;8.66;100.00;100866.25;5038016;28;45366;-78
2023/02/25 00:11:04;;;;;;;;;14.75;7.75;;;;;8.64;100.00;100871.47;5035913;28;64502;-78
2023/02/25 00:13:30;;;;;;;;;10.75;7.50;;;;;8.63;100.00;100867.16;5038226;28;45421;-78
2023/02/25 00:15:58;;;;;;;;;14.00;5.00;;;;;8.62;100.00;100877.56;5070548;28;45388;-78
2023/02/25 00:18:27;;;;;;;;;8.75;7.50;;;;;8.60;100.00;100871.53;5037136;28;45380;-78
2023/02/25 00:20:53;;;;;;;;;11.25;6.00;;;;;8.55;100.00;100858.66;5037529;28;46660;-78
2023/02/25 00:23:19;;;;;;;;;9.25;5.50;;;;;8.60;100.00;100868.94;5036545;28;45617;-78
2023/02/25 00:25:44;;;;;;;;;9.50;8.25;;;;;8.58;100.00;100873.31;5036684;28;45352;-78
2023/02/25 00:28:10;;;;;;;;;6.00;6.00;;;;;8.52;100.00;100876.88;5036283;28;45714;-78
2023/02/25 00:30:37;;;;;;;;;7.25;5.25;;;;;8.49;100.00;100872.59;5037027;28;47537;-78
2023/02/25 00:33:04;;;;;;;;;12.75;8.00;;;;;8.45;100.00;100865.75;5037823;28;45349;-78
2023/02/25 00:35:29;;;;;;;;;9.00;5.00;;;;;8.52;100.00;100876.88;5037708;28;45651;-78
2023/02/25 00:37:55;;;;;;;;;11.25;6.50;;;;;8.53;100.00;100876.00;5037439;28;51617;-78
2023/02/25 00:40:20;;;;;;;;;12.50;8.00;;;;;8.52;100.00;100872.56;5035455;28;72746;-77
2023/02/25 00:42:45;;;;;;;;;13.75;8.50;;;;;8.55;100.00;100868.19;5037015;28;65906;-77
2023/02/25 00:45:11;;;;;;;;;8.00;6.00;;;;;8.49;100.00;100857.03;5037038;28;59831;-78
2023/02/25 00:47:37;;;;;;;;;7.25;5.00;;;;;8.47;100.00;100858.81;5036619;28;45407;-78
2023/02/25 00:50:05;;;;;;;;;7.50;5.00;;;;;8.49;100.00;100858.78;5035652;28;47524;-78
2023/02/25 00:52:32;;;;;;;;;9.75;5.50;;;;;8.57;100.00;100876.78;5037575;28;45395;-77
2023/02/25 00:54:57;;;;;;;;;9.25;8.00;;;;;8.56;100.00;100875.91;5036490;28;45426;-77
2023/02/25 00:57:23;;;;;;;;;9.25;5.00;;;;;8.61;100.00;100878.44;5036795;28;67251;-78
2023/02/25 00:59:48;;;;;;;;;7.00;0.75;;;;;8.56;100.00;100867.28;5036604;28;69011;-78
2023/02/25 01:02:14;;;;;;;;;8.50;5.00;;;;;8.59;100.00;100870.69;5036314;28;45290;-78
2023/02/25 01:04:39;;;;;;;;;9.00;5.25;;;;;8.61;100.00;100868.91;5036974;28;45369;-77
2023/02/25 01:07:04;;;;;;;;;5.75;5.75;;;;;8.63;100.00;100863.69;5035757;28;57268;-78
2023/02/25 01:09:30;;;;;;;;;10.00;6.00;;;;;8.64;100.00;100868.88;5036323;28;66003;-78
2023/02/25 01:11:55;;;;;;;;;13.00;7.75;;;;;8.70;100.00;100868.75;5036332;28;67578;-78
2023/02/25 01:14:22;;;;;;;;;5.75;5.00;;;;;8.66;100.00;100872.28;5037226;28;46453;-77
2023/02/25 01:16:49;;;;;;;;;6.00;5.00;;;;;8.69;100.00;100873.97;5037167;28;45490;-78
2023/02/25 01:19:18;;;;;;;;;14.00;7.50;;;;;8.66;100.00;100877.47;5036991;28;46522;-78
2023/02/25 01:21:45;;;;;;;;;8.25;5.00;;;;;8.69;100.00;100882.63;5036122;28;45569;-77
2023/02/25 01:24:21;;;;;;;;;7.25;5.50;;;;;8.70;100.00;100875.69;5035993;28;45519;-77
2023/02/25 01:26:48;;;;;;;;;9.75;6.00;;;;;8.68;100.00;100880.91;5036017;28;45505;-77
2023/02/25 01:29:19;;;;;;;;;11.50;4.50;;;;;8.69;100.00;100881.75;5035930;28;46478;-78
2023/02/25 01:31:45;;;;;;;;;4.75;4.75;;;;;8.66;100.00;100880.06;5037040;28;45432;-77
2023/02/25 01:34:14;;;;;;;;;4.00;2.00;;;;;8.64;100.00;100873.22;5036685;28;45381;-78
2023/02/25 01:36:39;;;;;;;;;12.75;5.00;;;;;8.66;100.00;100872.28;5035781;28;45364;-78
2023/02/25 01:39:05;;;;;;;;;16.25;8.00;;;;;8.66;100.00;100872.28;5036906;28;46761;-77
2023/02/25 01:41:32;;;;;;;;;9.00;5.75;;;;;8.66;100.00;100866.25;5018645;28;45492;-79
2023/02/25 01:44:15;;;;;;;;;6.00;6.00;;;;;8.56;100.00;100867.28;5035643;28;45330;-78
2023/02/25 01:46:43;;;;;;;;;11.00;5.00;;;;;8.60;100.00;100868.94;5035595;28;45275;-77
2023/02/25 01:49:20;;;;;;;;;8.25;5.75;;;;;8.61;100.00;100871.50;5036209;28;46348;-78
2023/02/25 01:51:49;;;;;;;;;5.25;4.50;;;;;8.60;100.00;100867.22;5035434;28;45375;-77
2023/02/25 01:54:16;;;;;;;;;12.50;4.00;;;;;8.57;100.00;100875.06;5036834;28;45400;-78
2023/02/25 01:56:47;;;;;;;;;6.00;4.50;;;;;8.57;100.00;100880.25;5035530;28;45320;-77
2023/02/25 01:59:13;;;;;;;;;8.25;6.00;;;;;8.53;100.00;100871.66;5036496;28;45476;-78
2023/02/25 02:01:39;;;;;;;;;5.50;4.25;;;;;8.57;100.00;100871.59;5035481;28;45412;-77
2023/02/25 02:04:07;;;;;;;;;0.75;0.50;;;;;8.55;100.00;100866.44;5036230;28;45407;-77
2023/02/25 02:06:35;;;;;;;;;6.50;4.00;;;;;8.58;100.00;100878.50;5036483;28;45328;-78
2023/02/25 02:09:02;;;;;;;;;6.75;2.50;;;;;8.51;100.00;100864.78;5036409;28;46158;-77
2023/02/25 02:11:28;;;;;;;;;7.50;3.00;;;;;8.56;100.00;100869.88;5035064;28;45496;-77
2023/02/25 02:13:55;;;;;;;;;3.25;2.75;;;;;8.53;100.00;100874.25;5034513;28;57719;-77
2023/02/25 02:16:30;;;;;;;;;4.00;2.00;;;;;8.51;100.00;100864.78;5035171;28;45425;-78
2023/02/25 02:18:59;;;;;;;;;2.75;2.00;;;;;8.50;100.00;100876.88;5036300;28;46181;-78
2023/02/25 02:21:44;;;;;;;;;5.50;2.25;;;;;8.51;100.00;100878.63;5035063;28;45921;-77
2023/02/25 02:24:38;;;;;;;;;3.50;3.50;;;;;8.45;100.00;100864.88;5035276;28;45454;-78
2023/02/25 02:27:13;;;;;;;;;2.50;2.00;;;;;8.31;100.00;100863.38;5035141;28;45304;-77
2023/02/25 02:29:52;;;;;;;;;6.00;1.50;;;;;8.29;100.00;100872.91;5036030;28;46380;-77
2023/02/25 02:32:30;;;;;;;;;4.50;3.00;;;;;8.23;100.00;100869.59;5034361;28;45898;-77
2023/02/25 02:35:18;;;;;;;;;6.50;4.00;;;;;8.18;100.00;100866.22;5036144;28;45329;-77
2023/02/25 02:38:03;;;;;;;;;5.50;4.00;;;;;8.13;100.00;100856.78;5030444;28;45272;-78
2023/02/25 02:40:31;;;;;;;;;5.75;4.00;;;;;8.16;100.00;100866.22;5035935;28;46141;-77
2023/02/25 02:43:05;;;;;;;;;4.50;4.00;;;;;8.14;100.00;100858.47;5035827;28;46016;-77
2023/02/25 02:45:45;;;;;;;;;4.25;3.00;;;;;8.14;100.00;100855.88;5034269;28;45537;-78
2023/02/25 02:48:27;;;;;;;;;7.00;4.00;;;;;8.11;100.00;100857.66;5035819;28;45661;-77
2023/02/25 02:51:09;;;;;;;;;5.75;4.75;;;;;8.08;100.00;100871.56;5034348;28;45464;-77
2023/02/25 02:53:46;;;;;;;;;8.75;4.00;;;;;8.01;100.00;100858.72;5033903;28;45774;-78
2023/02/25 02:56:13;;;;;;;;;7.00;4.00;;;;;7.99;100.00;100858.75;5034500;28;45434;-78
2023/02/25 02:58:47;;;;;;;;;10.50;3.75;;;;;8.03;100.00;100865.56;5034502;28;45413;-77
2023/02/25 03:01:16;;;;;;;;;5.00;2.50;;;;;8.00;100.00;100862.19;5033988;28;46674;-77
2023/02/25 03:03:58;;;;;;;;;7.00;4.50;;;;;8.02;100.00;100861.25;5034553;28;45362;-78
2023/02/25 03:06:28;;;;;;;;;4.00;4.00;;;;;8.04;100.00;100871.59;5034815;28;45431;-78
2023/02/25 03:08:57;;;;;;;;;5.25;3.00;;;;;8.02;100.00;100874.22;5067962;28;45418;-78
2023/02/25 03:11:23;;;;;;;;;8.50;4.00;;;;;7.99;100.00;100866.50;5034175;28;46673;-77
2023/02/25 03:13:49;;;;;;;;;5.00;4.00;;;;;7.93;100.00;100864.88;5033510;28;67952;-78
2023/02/25 03:16:21;;;;;;;;;5.00;4.00;;;;;7.99;100.00;100876.03;5034065;28;45456;-77
2023/02/25 03:18:58;;;;;;;;;5.00;4.75;;;;;7.98;100.00;100872.56;5034489;28;45362;-78
2023/02/25 03:21:29;;;;;;;;;4.00;4.00;;;;;8.00;100.00;100875.13;5034175;28;47546;-77
2023/02/25 03:23:55;;;;;;;;;4.00;4.00;;;;;7.98;100.00;100869.97;5034244;28;46263;-77
2023/02/25 03:26:29;;;;;;;;;5.75;4.50;;;;;7.95;100.00;100873.47;5033859;28;52210;-77
2023/02/25 03:28:54;;;;;;;;;5.50;4.75;;;;;7.94;100.00;100878.69;5034041;28;45412;-77
2023/02/25 03:31:41;;;;;;;;;4.50;4.50;;;;;7.87;100.00;100867.53;5033789;28;45396;-77
2023/02/25 03:34:18;;;;;;;;;5.50;4.50;;;;;7.90;100.00;100884.81;5034236;28;45447;-78
2023/02/25 03:36:56;;;;;;;;;8.00;4.00;;;;;7.89;100.00;100877.88;5034201;28;45449;-77
2023/02/25 03:39:27;;;;;;;;;6.00;2.00;;;;;7.79;100.00;100868.56;5034216;28;45272;-77
2023/02/25 03:41:54;;;;;;;;;5.00;4.00;;;;;7.81;100.00;100874.56;5033776;28;46318;-77
2023/02/25 03:44:23;;;;;;;;;5.75;2.00;;;;;7.70;100.00;100873.00;5033578;28;45376;-77
2023/02/25 03:46:48;;;;;;;;;4.25;2.00;;;;;7.74;100.00;100882.44;5034051;28;45406;-77
2023/02/25 03:49:21;;;;;;;;;6.00;4.00;;;;;7.69;100.00;100881.66;5033684;28;45445;-76
2023/02/25 03:51:48;;;;;;;;;4.50;4.50;;;;;7.68;100.00;100882.53;5033624;28;47489;-76
2023/02/25 03:54:15;;;;;;;;;8.00;2.00;;;;;7.70;100.00;100888.53;5033737;28;45475;-77
2023/02/25 03:56:46;;;;;;;;;6.50;3.00;;;;;7.66;100.00;100880.84;5033989;28;45389;-76
2023/02/25 03:59:12;;;;;;;;;2.50;1.00;;;;;7.72;100.00;100885.94;5034807;28;45475;-77
2023/02/25 04:01:39;;;;;;;;;5.00;2.00;;;;;7.67;100.00;100878.25;5034767;28;46333;-77
2023/02/25 04:04:04;;;;;;;;;8.00;4.00;;;;;7.67;100.00;100885.13;5035637;28;45940;-76
2023/02/25 04:06:30;;;;;;;;;6.00;2.00;;;;;7.64;100.00;100885.19;5037324;28;45431;-77
2023/02/25 04:08:57;;;;;;;;;4.00;0.75;;;;;7.67;100.00;100890.31;5038611;28;45652;-77
2023/02/25 04:11:22;;;;;;;;;3.50;1.50;;;;;7.62;100.00;100879.19;5038318;28;47482;-76
2023/02/25 04:13:47;;;;;;;;;7.75;2.50;;;;;7.63;100.00;100880.88;5037945;28;45370;-77
2023/02/25 04:16:13;;;;;;;;;8.50;2.00;;;;;7.65;100.00;100892.06;5053028;28;64112;-77
2023/02/25 04:18:38;;;;;;;;;1.50;1.00;;;;;7.67;100.00;100888.59;5036806;28;45360;-77
2023/02/25 04:21:05;;;;;;;;;4.75;2.50;;;;;7.64;100.00;100895.56;5035995;28;68591;-77
2023/02/25 04:23:31;;;;;;;;;2.00;0.75;;;;;7.68;100.00;100899.81;5036874;28;45350;-77
2023/02/25 04:25:56;;;;;;;;;7.50;1.75;;;;;7.68;100.00;100899.81;5038160;28;45400;-77
2023/02/25 04:28:21;;;;;;;;;4.00;1.00;;;;;7.67;100.00;100908.44;5037153;28;63498;-77
2023/02/25 04:30:47;;;;;;;;;4.00;2.00;;;;;7.64;100.00;100906.78;5035654;28;68688;-78
2023/02/25 04:33:12;;;;;;;;;4.00;1.50;;;;;7.70;100.00;100913.59;5037120;28;66367;-78
2023/02/25 04:35:38;;;;;;;;;1.00;1.00;;;;;7.70;100.00;100916.19;5038075;28;45388;-77
2023/02/25 04:38:03;;;;;;;;;1.00;1.00;;;;;7.71;100.00;100917.91;5038034;28;45402;-78
2023/02/25 04:40:29;;;;;;;;;1.00;1.00;;;;;7.69;100.00;100914.47;5037863;28;45320;-77
2023/02/25 04:42:54;;;;;;;;;1.00;1.00;;;;;7.72;100.00;100914.44;5036575;28;63155;-77
2023/02/25 04:45:24;;;;;;;;;1.50;1.50;;;;;7.72;100.00;100917.03;5037858;28;45172;-76
2023/02/25 04:47:53;;;;;;;;;5.00;1.00;;;;;7.72;100.00;100911.84;5036316;28;45348;-77
2023/02/25 04:50:18;;;;;;;;;1.25;1.25;;;;;7.72;100.00;100914.44;5036368;28;47154;-77
2023/02/25 04:52:44;;;;;;;;;1.25;0.75;;;;;7.73;100.00;100919.59;5037634;28;45324;-77
2023/02/25 04:55:09;;;;;;;;;1.00;1.00;;;;;7.65;100.00;100910.22;5035563;28;60316;-77
2023/02/25 04:57:41;;;;;;;;;1.00;0.75;;;;;7.59;100.00;100907.72;5037466;28;45357;-77
2023/02/25 05:00:08;;;;;;;;;1.00;1.00;;;;;7.55;100.00;100914.66;5037489;28;45411;-76
2023/02/25 05:02:34;;;;;;;;;1.25;1.00;;;;;7.53;100.00;100919.88;5037562;28;45319;-78
2023/02/25 05:04:59;;;;;;;;;4.00;0.25;;;;;7.49;100.00;100920.78;5036900;28;63864;-77
2023/02/25 05:07:24;;;;;;;;;0.00;0.00;;;;;7.47;100.00;100919.97;5036865;28;64694;-77
2023/02/25 05:09:51;;;;;;;;;2.25;0.75;;;;;7.46;100.00;100925.16;5035567;28;62250;-77
2023/02/25 05:12:16;;;;;;;;;4.00;1.00;;;;;7.40;100.00;100915.72;5035610;28;45756;-77
2023/02/25 05:14:41;;;;;;;;;3.25;0.25;;;;;7.40;100.00;100915.72;5051395;28;63878;-78
2023/02/25 05:17:07;;;;;;;;;4.00;1.00;;;;;7.39;100.00;100918.34;5036932;28;60190;-77
2023/02/25 05:19:32;;;;;;;;;0.75;0.50;;;;;7.36;100.00;100919.25;5037183;28;45368;-77
2023/02/25 05:21:57;;;;;;;;;5.50;1.00;;;;;7.31;100.00;100914.09;5037210;28;45360;-77
2023/02/25 05:24:23;;;;;;;;;1.00;0.00;;;;;7.26;100.00;100922.81;5037417;28;45450;-77
2023/02/25 05:26:48;;;;;;;;;3.25;0.25;;;;;7.21;100.00;100924.63;5036823;28;45357;-76
2023/02/25 05:29:13;;;;;;;;;0.00;0.00;;;;;7.14;100.00;100919.50;5036396;28;66574;-77
2023/02/25 05:31:39;;;;;;;;;2.50;0.25;;;;;7.05;100.00;100913.56;5036113;28;66493;-77
2023/02/25 05:34:04;;;;;;;;;1.25;1.00;;;;;7.05;100.00;100927.38;5036620;28;55429;-77
2023/02/25 05:36:30;;;;;;;;;1.75;0.00;;;;;7.04;100.00;100930.84;5036620;28;60224;-77
2023/02/25 05:39:02;;;;;;;;;4.00;1.00;;;;;7.01;100.00;100924.84;5036812;28;46565;-76
2023/02/25 05:41:28;;;;;;;;;1.00;1.00;;;;;6.87;100.00;100912.91;5036725;28;45507;-77
2023/02/25 05:43:54;;;;;;;;;0.00;0.00;;;;;6.86;100.00;100923.28;5035777;28;45379;-77
2023/02/25 05:46:20;;;;;;;;;3.50;1.00;;;;;6.85;100.00;100924.13;5036995;28;45384;-77
2023/02/25 05:48:47;;;;;;;;;1.00;1.00;;;;;6.77;100.00;100914.72;5036523;28;45523;-77
2023/02/25 05:51:16;;;;;;;;;2.00;1.00;;;;;6.75;100.00;100913.03;5036612;28;45351;-77
2023/02/25 05:53:43;;;;;;;;;0.50;0.50;;;;;6.78;100.00;100923.38;5036711;28;45400;-77
2023/02/25 05:56:11;;;;;;;;;0.75;0.75;;;;;6.74;100.00;100922.53;5036641;28;45305;-77
2023/02/25 05:58:37;;;;;;;;;1.75;1.25;;;;;6.69;100.00;100921.72;5036404;28;46802;-76
2023/02/25 06:01:10;;;;;;;;;1.00;1.00;;;;;6.66;100.00;100916.56;5035166;28;54448;-77
2023/02/25 06:03:36;;;;;;;;;1.75;1.00;;;;;6.63;100.00;100920.91;5036688;28;45472;-77
2023/02/25 06:06:02;;;;;;;;;2.50;1.00;;;;;6.50;100.00;100902.94;5036625;28;45476;-77
2023/02/25 06:08:27;;;;;;;;;1.00;1.00;;;;;6.51;100.00;100914.97;5036312;28;45432;-77
2023/02/25 06:10:52;;;;;;;;;2.00;1.00;;;;;6.48;100.00;100922.78;5035634;28;60579;-77
2023/02/25 06:13:18;;;;;;;;;2.00;1.00;;;;;6.42;100.00;100919.38;5036392;28;63793;-76
2023/02/25 06:15:43;;;;;;;;;1.75;0.75;;;;;6.40;100.00;100922.81;5035623;28;67126;-77
2023/02/25 06:18:08;;;;;;;;;1.00;1.00;;;;;6.36;100.00;100926.31;5035292;28;71259;-76
2023/02/25 06:20:34;;;;;;;;;1.00;1.00;;;;;6.33;100.00;100922.91;5035678;28;64906;-76
2023/02/25 06:23:00;;;;;;;;;1.00;1.00;;;;;6.28;100.00;100916.91;5051758;28;45276;-76
2023/02/25 06:25:28;;;;;;;;;6.00;1.00;;;;;6.16;100.00;100913.56;5036434;28;45276;-76
2023/02/25 06:27:58;;;;;;;;;4.50;1.00;;;;;6.23;100.00;100926.44;5035237;28;46935;-77
2023/02/25 06:30:24;;;;;;;;;4.00;0.00;;;;;6.22;100.00;100935.06;5035039;28;45411;-76
2023/02/25 06:32:49;;;;;;;;;1.75;1.75;;;;;6.20;100.00;100935.94;5035245;28;45910;-77
2023/02/25 06:35:14;;;;;;;;;4.00;1.00;;;;;6.17;100.00;100935.09;5036189;28;45262;-77
2023/02/25 06:37:40;;;;;;;;;4.75;1.00;;;;;6.11;100.00;100932.53;5033711;28;70099;-77
2023/02/25 06:40:11;;;;;;;;;2.00;1.00;;;;;6.13;100.00;100947.19;5035382;28;62954;-77
2023/02/25 06:42:36;;;;;;;;;2.00;1.00;;;;;6.11;100.00;100946.34;5036437;28;45351;-77
2023/02/25 06:45:02;;;;;;;;;0.00;0.00;;;;;6.11;100.00;100935.13;5036286;28;45517;-76
2023/02/25 06:47:27;;;;;;;;;9.75;1.00;;;;;6.11;100.00;100945.47;5034404;28;47654;-76
2023/02/25 06:49:52;;;;;;;;;1.25;1.00;;;;;6.07;100.00;100939.47;5034962;28;71637;-77
2023/02/25 06:52:18;;;;;;;;;8.50;2.00;;;;;6.06;100.00;100939.50;5035614;28;45459;-76
2023/02/25 06:54:43;;;;;;;;;2.50;1.25;;;;;6.10;100.00;100959.28;5035063;28;68454;-78
2023/02/25 06:57:08;;;;;;;;;2.00;2.00;;;;;6.11;100.00;100954.09;5017011;28;71773;-77
2023/02/25 06:59:34;;;;;;;;;0.50;0.50;;;;;6.13;100.00;100951.47;5035902;28;45221;-77
2023/02/25 07:02:00;;;;;;;;;2.75;1.00;;;;;6.15;100.00;100963.53;5034575;28;45383;-76
2023/02/25 07:04:25;;;;;;;;;1.50;1.00;;;;;6.18;100.00;100960.94;5035867;28;45438;-76
2023/02/25 07:06:50;;;;;;;;;0.50;0.25;;;;;6.19;100.00;100952.31;5034481;28;67755;-77
2023/02/25 07:09:16;;;;;;;;;2.50;0.50;;;;;6.26;100.00;100960.00;5034187;28;45388;-76
2023/02/25 07:11:41;;;;;;;;;4.00;1.00;;;;;6.30;100.00;100959.13;5034912;28;65149;-77
2023/02/25 07:14:06;;;;;;;;;1.00;1.00;;;;;6.34;100.00;100958.25;5034358;28;45340;-77
2023/02/25 07:16:33;;;;;;;;;4.50;1.00;;;;;6.30;100.00;100949.66;5035412;28;45315;-77
2023/02/25 07:19:01;;;;;;;;;2.25;1.00;;;;;6.46;100.00;100968.47;5035509;28;45379;-77
2023/02/25 07:21:28;;;;;;;;;4.50;1.00;;;;;6.48;100.00;100960.69;5034120;28;45506;-77
2023/02/25 07:23:54;;;;;;;;;2.00;0.50;;;;;6.47;100.00;100956.41;5035554;28;45601;-76
2023/02/25 07:26:19;;;;;;;;;1.00;1.00;;;;;6.48;100.00;100956.41;5035360;28;45377;-77
2023/02/25 07:28:47;;;;;;;;;5.00;2.50;;;;;6.50;100.00;100952.06;5034461;28;68811;-77
2023/02/25 07:31:15;;;;;;;;;7.25;1.00;;;;;6.59;100.00;100974.41;5035530;28;45353;-77
2023/02/25 07:33:41;;;;;;;;;0.25;0.25;;;;;6.64;100.00;100970.03;5035541;28;45563;-77
2023/02/25 07:36:06;;;;;;;;;1.25;1.00;;;;;6.59;100.00;100970.09;5033682;28;45834;-77
2023/02/25 07:38:32;;;;;;;;;4.00;1.50;;;;;6.63;100.00;100985.56;5036720;28;45330;-77
2023/02/25 07:41:03;;;;;;;;;1.00;0.50;;;;;6.59;100.00;100977.84;5038050;28;67950;-76
2023/02/25 07:43:29;;;;;;;;;5.00;1.00;;;;;6.53;100.00;100971.88;5038809;28;45348;-76
2023/02/25 07:45:56;;;;;;;;;1.75;0.00;;;;;6.55;100.00;100972.72;5038742;28;45337;-77
2023/02/25 07:48:22;;;;;;;;;1.00;1.00;;;;;6.55;100.00;100968.38;5038562;28;45861;-77
2023/02/25 07:50:47;;;;;;;;;0.00;0.00;;;;;6.67;100.00;100984.69;5038229;28;45442;-76
2023/02/25 07:53:12;;;;;;;;;3.00;1.00;;;;;6.74;100.00;100976.88;5037395;28;45466;-77
2023/02/25 07:55:42;;;;;;;;;1.50;1.00;;;;;6.73;100.00;100984.63;5037582;28;72859;-76
2023/02/25 07:58:07;;;;;;;;;4.00;0.75;;;;;6.69;100.00;100981.22;5038670;28;45729;-76
2023/02/25 08:00:32;;;;;;;;;1.00;0.00;;;;;6.70;100.00;100990.66;5037808;28;67690;-77
2023/02/25 08:02:57;;;;;;;;;1.00;1.00;;;;;6.66;100.00;100988.16;5038697;28;45348;-76
2023/02/25 08:05:23;;;;;;;;;2.00;0.00;;;;;6.61;100.00;100992.50;5037118;28;69473;-80
2023/02/25 08:07:48;;;;;;;;;2.00;1.00;;;;;6.62;100.00;100999.41;5038638;28;45388;-79
2023/02/25 08:10:13;;;;;;;;;0.75;0.75;;;;;6.65;100.00;100992.47;5038290;28;45358;-78
2023/02/25 08:12:39;;;;;;;;;0.00;0.00;;;;;6.63;100.00;100995.91;5037512;28;64646;-78
2023/02/25 08:15:05;;;;;;;;;2.25;0.25;;;;;6.67;100.00;101002.81;5037546;28;71399;-78
2023/02/25 08:17:33;;;;;;;;;0.00;0.00;;;;;6.69;100.00;101001.91;5038272;28;45835;-79
2023/02/25 08:19:58;;;;;;;;;1.25;0.00;;;;;6.72;100.00;101001.00;5036890;28;45347;-78
2023/02/25 08:22:24;;;;;;;;;0.75;0.00;;;;;6.74;100.00;101007.03;5046793;28;66867;-78
2023/02/25 08:24:49;;;;;;;;;3.00;2.00;;;;;6.70;100.00;100990.66;5040709;28;65524;-79
2023/02/25 08:27:15;;;;;;;;;1.25;0.75;;;;;6.77;100.00;101004.44;5037583;28;69785;-78
2023/02/25 08:29:40;;;;;;;;;1.75;0.25;;;;;6.75;100.00;100995.81;5038416;28;45420;-81
2023/02/25 08:32:06;;;;;;;;;0.00;0.00;;;;;6.81;100.00;100998.34;5038265;28;45478;-78
2023/02/25 08:34:32;;;;;;;;;1.00;0.75;;;;;6.83;100.00;101000.94;5038102;28;46112;-78
2023/02/25 08:36:58;;;;;;;;;8.00;2.00;;;;;6.84;100.00;100992.31;5038210;28;45454;-78
2023/02/25 08:39:23;;;;;;;;;2.00;1.00;;;;;6.91;100.00;101005.16;5037397;28;45268;-77
2023/02/25 08:41:49;;;;;;;;;0.25;0.00;;;;;6.92;100.00;101000.84;5037853;28;45429;-77
2023/02/25 08:44:14;;;;;;;;;0.25;0.25;;;;;6.97;100.00;100999.91;5069851;28;52106;-78
2023/02/25 08:46:39;;;;;;;;;3.50;1.00;;;;;6.96;100.00;100981.81;5036897;28;66720;-81
2023/02/25 08:49:05;;;;;;;;;1.75;0.00;;;;;7.09;100.00;100996.34;5047226;28;64467;-80
2023/02/25 08:51:34;;;;;;;;;2.00;1.00;;;;;7.06;100.00;100987.78;5037157;28;45638;-78
2023/02/25 08:54:05;;;;;;;;;5.25;0.00;;;;;7.24;100.00;101010.00;5036943;28;45515;-79
2023/02/25 08:56:31;;;;;;;;;2.00;0.50;;;;;7.33;100.00;101002.13;5036754;28;45985;-79
2023/02/25 08:58:56;;;;;;;;;1.25;0.75;;;;;7.46;100.00;100997.66;5037076;28;45337;-79
2023/02/25 09:01:22;;;;;;;;;1.25;1.00;;;;;7.62;100.00;100996.63;5037384;28;45390;-77
2023/02/25 09:03:53;;;;;;;;;1.00;1.00;;;;;7.83;100.00;100994.63;5037173;28;46337;-78
2023/02/25 09:06:25;;;;;;;;;0.25;0.00;;;;;8.10;100.00;100995.97;5037049;28;45556;-76
2023/02/25 09:08:51;;;;;;;;;1.00;1.00;;;;;8.37;100.00;100999.88;5037477;28;45438;-77
2023/02/25 09:11:18;;;;;;;;;5.50;0.00;;;;;8.61;100.00;100992.63;5034492;28;63940;-78
2023/02/25 09:13:43;;;;;;;;;0.25;0.00;;;;;8.74;100.00;101001.06;5037277;28;45356;-77
2023/02/25 09:16:09;;;;;;;;;1.00;0.00;;;;;8.79;100.00;100994.91;5036242;28;72130;-79
2023/02/25 09:18:34;;;;;;;;;1.50;0.75;;;;;8.69;100.00;100989.03;5035216;28;48501;-76
2023/02/25 09:21:00;;;;;;;;;4.50;0.00;;;;;8.71;100.00;101002.81;5037026;28;45464;-77
2023/02/25 09:23:25;;;;;;;;;1.00;0.00;;;;;8.48;100.00;100982.44;5036227;28;72358;-78
2023/02/25 09:25:50;;;;;;;;;1.00;0.00;;;;;8.43;100.00;100988.56;5036073;28;65176;-76
2023/02/25 09:28:16;;;;;;;;;2.00;1.00;;;;;8.36;100.00;100997.31;5036597;28;65326;-76
2023/02/25 09:30:45;;;;;;;;;4.00;1.00;;;;;8.27;100.00;101000.91;5036043;28;65061;-75
2023/02/25 09:33:10;;;;;;;;;0.00;0.00;;;;;8.23;100.00;100999.25;5035494;28;46490;-76
2023/02/25 09:35:35;;;;;;;;;3.00;0.25;;;;;8.26;100.00;101004.38;5036892;28;45499;-76
2023/02/25 09:38:01;;;;;;;;;1.00;0.00;;;;;8.36;100.00;101003.38;5035794;28;65672;-75
2023/02/25 09:40:26;;;;;;;;;0.00;0.00;;;;;8.45;100.00;101010.16;5035960;28;68133;-75
2023/02/25 09:42:58;;;;;;;;;0.50;0.50;;;;;8.48;100.00;101002.34;5035728;28;70224;-75
2023/02/25 09:45:25;;;;;;;;;4.00;0.00;;;;;8.52;100.00;101004.88;5036161;28;45376;-76
2023/02/25 09:47:59;;;;;;;;;0.00;0.00;;;;;8.48;100.00;100997.16;5036173;28;45625;-75
2023/02/25 09:50:32;;;;;;;;;0.75;0.75;;;;;8.47;100.00;100993.72;5035519;28;45324;-76
2023/02/25 09:53:17;;;;;;;;;3.00;1.00;;;;;8.48;100.00;100997.16;5035299;28;45487;-75
2023/02/25 09:55:46;;;;;;;;;2.50;2.50;;;;;8.52;100.00;101002.28;5034749;28;45329;-75
2023/02/25 09:58:33;;;;;;;;;1.25;1.00;;;;;8.56;100.00;100995.28;5036356;28;45554;-75
2023/02/25 10:01:10;;;;;;;;;1.25;1.00;;;;;8.60;100.00;100996.97;5034327;28;45537;-76
2023/02/25 10:04:14;;;;;;;;;4.25;0.75;;;;;8.65;100.00;100989.09;5036152;28;46655;-77
2023/02/25 10:06:42;;;;;;;;;1.50;0.50;;;;;8.76;100.00;100991.50;5036065;28;46276;-77
2023/02/25 10:09:33;;;;;;;;;0.00;0.00;;;;;9.00;100.00;100998.84;5068172;28;45402;-77
2023/02/25 10:12:38;;;;;;;;;4.75;0.75;;;;;9.29;100.00;100994.88;5034962;28;45476;-77
2023/02/25 10:15:19;;;;;;;;;1.25;1.00;;;;;9.58;100.00;101003.81;4992989;28;46196;-76
2023/02/25 10:18:21;;;;;;;;;4.00;0.00;;;;;9.90;100.00;101000.53;4994299;28;45519;-76
2023/02/25 10:20:54;;;;;;;;;4.00;2.00;;;;;10.21;100.00;101000.69;4994325;28;45454;-77
2023/02/25 10:23:34;;;;;;;;;1.25;1.00;;;;;10.56;100.00;100998.16;4977093;28;45435;-77
2023/02/25 10:26:06;;;;;;;;;2.00;1.00;;;;;10.79;100.00;100988.03;4977983;28;45534;-77
2023/02/25 10:28:33;;;;;;;;;1.00;1.00;;;;;11.02;99.62;100992.63;4978069;28;45703;-77
2023/02/25 10:31:06;;;;;;;;;5.00;1.00;;;;;11.08;98.10;100994.22;4993666;28;45516;-78
2023/02/25 10:33:39;;;;;;;;;1.00;0.50;;;;;11.01;98.34;100992.66;4992941;28;45442;-78
2023/02/25 10:36:13;;;;;;;;;1.75;1.00;;;;;10.96;97.78;100992.81;4993484;28;45604;-77
2023/02/25 10:38:44;;;;;;;;;4.50;2.25;;;;;10.78;97.09;100990.69;4991896;28;45863;-77
2023/02/25 10:41:10;;;;;;;;;3.00;1.00;;;;;10.63;96.93;100992.78;4977031;28;45444;-76
2023/02/25 10:43:35;;;;;;;;;1.00;1.00;;;;;10.70;97.57;101003.03;4994212;28;45683;-77
2023/02/25 10:46:12;;;;;;;;;1.00;1.00;;;;;10.89;97.04;100993.84;4993499;28;46146;-77
2023/02/25 10:48:39;;;;;;;;;3.50;1.00;;;;;11.21;97.55;100995.59;4993864;28;45314;-77
2023/02/25 10:51:13;;;;;;;;;5.00;1.00;;;;;11.58;96.79;100993.69;4997880;28;45431;-78
2023/02/25 10:53:40;;;;;;;;;1.00;1.00;;;;;11.84;95.46;100984.25;5014915;28;45389;-77
2023/02/25 10:56:06;;;;;;;;;3.00;1.75;;;;;12.08;94.79;100990.50;5015765;28;47023;-77
2023/02/25 10:58:48;;;;;;;;;2.50;1.50;;;;;12.22;93.33;100988.34;5014213;28;45372;-77
2023/02/25 11:01:16;;;;;;;;;3.00;1.75;;;;;12.20;91.57;100983.16;5014700;28;46003;-77
2023/02/25 11:03:52;;;;;;;;;2.50;1.00;;;;;12.11;91.40;100985.19;5014604;28;45687;-76
2023/02/25 11:06:23;;;;;;;;;1.75;0.00;;;;;11.92;90.50;100988.38;5015810;28;46416;-77
2023/02/25 11:08:51;;;;;;;;;1.00;1.00;;;;;11.69;90.32;100982.97;5016328;28;45342;-77
2023/02/25 11:11:23;;;;;;;;;0.50;0.25;;;;;11.57;90.17;100976.34;5035673;28;45394;-77
2023/02/25 11:14:02;;;;;;;;;2.25;1.00;;;;;11.49;89.69;100981.78;5034759;28;45257;-77
2023/02/25 11:16:28;;;;;;;;;2.00;0.50;;;;;11.45;89.53;100969.75;5034332;28;46682;-78
2023/02/25 11:19:13;;;;;;;;;3.75;0.00;;;;;11.61;89.89;100968.41;5033589;28;45318;-78
2023/02/25 11:21:39;;;;;;;;;5.75;0.75;;;;;11.72;89.84;100962.00;5014289;28;45392;-78
2023/02/25 11:24:17;;;;;;;;;1.25;1.25;;;;;11.89;89.15;100962.34;5027024;28;45510;-77
2023/02/25 11:26:45;;;;;;;;;2.50;1.00;;;;;11.97;87.51;100973.44;5033655;28;46525;-78
2023/02/25 11:29:17;;;;;;;;;2.00;1.00;;;;;12.04;87.41;100968.03;5035172;28;45431;-76
2023/02/25 11:31:44;;;;;;;;;2.75;1.00;;;;;12.14;85.82;100972.03;5033805;28;45305;-77